sensor_id;sensor_type;location;lat;lon;timestamp;pressure;altitude;pressure_sealevel;temperature;humidity
74529;BME280;63009;52.584;5.932;2023-11-21T00:00:05;100739.38;;;9.45;100.00
74529;BME280;63009;52.584;5.932;2023-11-21T00:02:35;100745.31;;;9.33;100.00
74529;BME280;63009;52.584;5.932;2023-11-21T00:05:01;100744.66;;;9.29;100.00
74529;BME280;63009;52.584;5.932;2023-11-21T00:07:28;100741.84;;;9.32;100.00
74529;BME280;63009;52.584;5.932;2023-11-21T00:09:53;100748.72;;;9.35;100.00
74529;BME280;63009;52.584;5.932;2023-11-21T00:12:20;100749.03;;;9.29;100.00
74529;BME280;63009;52.584;5.932;2023-11-21T00:14:46;100746.50;;;9.27;100.00
74529;BME280;63009;52.584;5.932;2023-11-21T00:17:11;100752.38;;;9.32;100.00
74529;BME280;63009;52.584;5.932;2023-11-21T00:19:36;100754.75;;;9.37;100.00
74529;BME280;63009;52.584;5.932;2023-11-21T00:22:01;100760.47;;;9.45;100.00
74529;BME280;63009;52.584;5.932;2023-11-21T00:24:27;100751.19;;;9.38;100.00
74529;BME280;63009;52.584;5.932;2023-11-21T00:26:52;100765.31;;;9.37;100.00
74529;BME280;63009;52.584;5.932;2023-11-21T00:29:18;100767.94;;;9.37;100.00
74529;BME280;63009;52.584;5.932;2023-11-21T00:31:44;100771.53;;;9.51;100.00
74529;BME280;63009;52.584;5.932;2023-11-21T00:34:10;100770.84;;;9.48;100.00
74529;BME280;63009;52.584;5.932;2023-11-21T00:36:36;100771.13;;;9.43;100.00
74529;BME280;63009;52.584;5.932;2023-11-21T00:39:01;100769.34;;;9.60;100.00
74529;BME280;63009;52.584;5.932;2023-11-21T00:41:28;100776.81;;;9.67;100.00
74529;BME280;63009;52.584;5.932;2023-11-21T00:43:54;100785.56;;;9.68;100.00
74529;BME280;63009;52.584;5.932;2023-11-21T00:46:20;100782.53;;;9.75;100.00
74529;BME280;63009;52.584;5.932;2023-11-21T00:48:45;100775.09;;;9.66;100.00
74529;BME280;63009;52.584;5.932;2023-11-21T00:51:11;100774.44;;;9.63;100.00
74529;BME280;63009;52.584;5.932;2023-11-21T00:53:36;100771.22;;;9.58;100.00
74529;BME280;63009;52.584;5.932;2023-11-21T00:56:01;100777.16;;;9.61;100.00
74529;BME280;63009;52.584;5.932;2023-11-21T00:58:27;100779.44;;;9.67;100.00
74529;BME280;63009;52.584;5.932;2023-11-21T01:00:53;100782.44;;;9.77;100.00
74529;BME280;63009;52.584;5.932;2023-11-21T01:03:18;100773.56;;;9.78;100.00
74529;BME280;63009;52.584;5.932;2023-11-21T01:05:44;100782.63;;;9.74;100.00
74529;BME280;63009;52.584;5.932;2023-11-21T01:08:10;100770.41;;;9.56;100.00
74529;BME280;63009;52.584;5.932;2023-11-21T01:10:35;100780.38;;;9.66;100.00
74529;BME280;63009;52.584;5.932;2023-11-21T01:13:01;100790.19;;;9.64;100.00
74529;BME280;63009;52.584;5.932;2023-11-21T01:15:26;100784.47;;;9.56;100.00
74529;BME280;63009;52.584;5.932;2023-11-21T01:17:52;100790.34;;;9.61;100.00
74529;BME280;63009;52.584;5.932;2023-11-21T01:20:18;100792.63;;;9.67;100.00
74529;BME280;63009;52.584;5.932;2023-11-21T01:22:43;100797.59;;;9.58;100.00
74529;BME280;63009;52.584;5.932;2023-11-21T01:25:09;100803.28;;;9.66;100.00
74529;BME280;63009;52.584;5.932;2023-11-21T01:27:35;100803.56;;;9.61;100.00
74529;BME280;63009;52.584;5.932;2023-11-21T01:30:02;100805.56;;;9.56;100.00
74529;BME280;63009;52.584;5.932;2023-11-21T01:32:28;100807.88;;;9.62;100.00
74529;BME280;63009;52.584;5.932;2023-11-21T01:34:54;100810.09;;;9.70;100.00
74529;BME280;63009;52.584;5.932;2023-11-21T01:37:20;100804.56;;;9.74;100.00
74529;BME280;63009;52.584;5.932;2023-11-21T01:39:47;100812.81;;;9.68;100.00
74529;BME280;63009;52.584;5.932;2023-11-21T01:42:12;100816.47;;;9.66;100.00
74529;BME280;63009;52.584;5.932;2023-11-21T01:44:38;100821.66;;;9.67;100.00
74529;BME280;63009;52.584;5.932;2023-11-21T01:47:05;100816.31;;;9.69;100.00
74529;BME280;63009;52.584;5.932;2023-11-21T01:49:34;100822.78;;;9.79;100.00
74529;BME280;63009;52.584;5.932;2023-11-21T01:51:59;100823.47;;;9.82;100.00
74529;BME280;63009;52.584;5.932;2023-11-21T01:54:25;100820.72;;;9.84;100.00
74529;BME280;63009;52.584;5.932;2023-11-21T01:56:51;100822.19;;;9.90;100.00
74529;BME280;63009;52.584;5.932;2023-11-21T01:59:19;100825.16;;;9.83;100.00
74529;BME280;63009;52.584;5.932;2023-11-21T02:01:46;100819.78;;;9.85;100.00
74529;BME280;63009;52.584;5.932;2023-11-21T02:04:12;100825.06;;;9.85;100.00
74529;BME280;63009;52.584;5.932;2023-11-21T02:06:38;100828.75;;;9.82;100.00
74529;BME280;63009;52.584;5.932;2023-11-21T02:09:04;100826.38;;;9.78;100.00
74529;BME280;63009;52.584;5.932;2023-11-21T02:11:30;100827.47;;;9.90;100.00
74529;BME280;63009;52.584;5.932;2023-11-21T02:13:55;100825.94;;;9.86;100.00
74529;BME280;63009;52.584;5.932;2023-11-21T02:16:20;100839.28;;;9.82;100.00
74529;BME280;63009;52.584;5.932;2023-11-21T02:18:49;100837.78;;;9.78;100.00
74529;BME280;63009;52.584;5.932;2023-11-21T02:21:16;100843.91;;;9.63;100.00
74529;BME280;63009;52.584;5.932;2023-11-21T02:23:41;100842.78;;;9.67;100.00
74529;BME280;63009;52.584;5.932;2023-11-21T02:26:10;100840.69;;;9.74;100.00
74529;BME280;63009;52.584;5.932;2023-11-21T02:28:35;100845.69;;;9.78;100.00
74529;BME280;63009;52.584;5.932;2023-11-21T02:31:01;100843.06;;;9.78;100.00
74529;BME280;63009;52.584;5.932;2023-11-21T02:33:28;100849.75;;;9.84;100.00
74529;BME280;63009;52.584;5.932;2023-11-21T02:35:53;100844.94;;;9.76;100.00
74529;BME280;63009;52.584;5.932;2023-11-21T02:38:23;100844.06;;;9.76;100.00
74529;BME280;63009;52.584;5.932;2023-11-21T02:40:48;100856.34;;;9.93;100.00
74529;BME280;63009;52.584;5.932;2023-11-21T02:43:14;100848.78;;;9.87;100.00
74529;BME280;63009;52.584;5.932;2023-11-21T02:45:39;100847.22;;;9.82;100.00
74529;BME280;63009;52.584;5.932;2023-11-21T02:48:07;100845.19;;;9.88;100.00
74529;BME280;63009;52.584;5.932;2023-11-21T02:50:32;100852.84;;;9.92;100.00
74529;BME280;63009;52.584;5.932;2023-11-21T02:52:58;100848.69;;;9.88;100.00
74529;BME280;63009;52.584;5.932;2023-11-21T02:55:26;100850.97;;;9.94;100.00
74529;BME280;63009;52.584;5.932;2023-11-21T02:57:51;100848.69;;;9.88;100.00
74529;BME280;63009;52.584;5.932;2023-11-21T03:00:16;100846.03;;;9.88;100.00
74529;BME280;63009;52.584;5.932;2023-11-21T03:02:42;100844.94;;;9.92;100.00
74529;BME280;63009;52.584;5.932;2023-11-21T03:05:09;100847.66;;;9.91;100.00
74529;BME280;63009;52.584;5.932;2023-11-21T03:07:36;100851.81;;;9.95;100.00
74529;BME280;63009;52.584;5.932;2023-11-21T03:10:02;100857.28;;;9.92;100.00
74529;BME280;63009;52.584;5.932;2023-11-21T03:12:29;100856.06;;;9.97;100.00
74529;BME280;63009;52.584;5.932;2023-11-21T03:14:54;100859.25;;;10.04;100.00
74529;BME280;63009;52.584;5.932;2023-11-21T03:17:20;100848.84;;;10.01;100.00
74529;BME280;63009;52.584;5.932;2023-11-21T03:19:46;100848.00;;;10.00;100.00
74529;BME280;63009;52.584;5.932;2023-11-21T03:22:11;100851.50;;;10.01;100.00
74529;BME280;63009;52.584;5.932;2023-11-21T03:24:36;100843.56;;;10.01;100.00
74529;BME280;63009;52.584;5.932;2023-11-21T03:27:03;100847.22;;;9.98;100.00
74529;BME280;63009;52.584;5.932;2023-11-21T03:29:29;100848.06;;;9.99;100.00
74529;BME280;63009;52.584;5.932;2023-11-21T03:31:54;100852.84;;;9.92;100.00
74529;BME280;63009;52.584;5.932;2023-11-21T03:34:27;100861.44;;;9.96;100.00
74529;BME280;63009;52.584;5.932;2023-11-21T03:36:52;100850.03;;;9.95;100.00
74529;BME280;63009;52.584;5.932;2023-11-21T03:39:19;100857.53;;;10.03;100.00
74529;BME280;63009;52.584;5.932;2023-11-21T03:41:45;100860.59;;;9.95;100.00
74529;BME280;63009;52.584;5.932;2023-11-21T03:44:10;100853.53;;;9.96;100.00
74529;BME280;63009;52.584;5.932;2023-11-21T03:46:36;100869.97;;;10.01;100.00
74529;BME280;63009;52.584;5.932;2023-11-21T03:49:01;100860.28;;;10.01;100.00
74529;BME280;63009;52.584;5.932;2023-11-21T03:51:26;100872.94;;;10.10;100.00
74529;BME280;63009;52.584;5.932;2023-11-21T03:53:52;100877.47;;;10.08;100.00
74529;BME280;63009;52.584;5.932;2023-11-21T03:56:17;100868.88;;;10.05;100.00
74529;BME280;63009;52.584;5.932;2023-11-21T03:58:42;100872.84;;;10.12;100.00
74529;BME280;63009;52.584;5.932;2023-11-21T04:01:07;100887.69;;;10.15;100.00
74529;BME280;63009;52.584;5.932;2023-11-21T04:03:33;100887.84;;;10.11;100.00
74529;BME280;63009;52.584;5.932;2023-11-21T04:05:58;100882.25;;;10.18;100.00
74529;BME280;63009;52.584;5.932;2023-11-21T04:08:23;100882.00;;;10.22;100.00
74529;BME280;63009;52.584;5.932;2023-11-21T04:10:50;100882.06;;;10.21;100.00
74529;BME280;63009;52.584;5.932;2023-11-21T04:13:15;100879.50;;;10.19;100.00
74529;BME280;63009;52.584;5.932;2023-11-21T04:15:41;100889.94;;;10.22;100.00
74529;BME280;63009;52.584;5.932;2023-11-21T04:18:06;100891.72;;;10.22;100.00
74529;BME280;63009;52.584;5.932;2023-11-21T04:20:31;100892.13;;;10.14;100.00
74529;BME280;63009;52.584;5.932;2023-11-21T04:22:57;100900.81;;;10.16;100.00
74529;BME280;63009;52.584;5.932;2023-11-21T04:25:22;100904.41;;;10.15;100.00
74529;BME280;63009;52.584;5.932;2023-11-21T04:27:48;100908.88;;;10.13;100.00
74529;BME280;63009;52.584;5.932;2023-11-21T04:30:14;100910.34;;;10.19;100.00
74529;BME280;63009;52.584;5.932;2023-11-21T04:32:40;100919.91;;;10.21;100.00
74529;BME280;63009;52.584;5.932;2023-11-21T04:35:06;100914.63;;;10.21;100.00
74529;BME280;63009;52.584;5.932;2023-11-21T04:37:31;100921.94;;;10.16;100.00
74529;BME280;63009;52.584;5.932;2023-11-21T04:39:56;100928.47;;;10.09;100.00
74529;BME280;63009;52.584;5.932;2023-11-21T04:42:22;100934.38;;;10.14;100.00
74529;BME280;63009;52.584;5.932;2023-11-21T04:44:48;100935.28;;;10.13;100.00
74529;BME280;63009;52.584;5.932;2023-11-21T04:47:13;100931.66;;;10.16;100.00
74529;BME280;63009;52.584;5.932;2023-11-21T04:49:42;100938.28;;;10.07;100.00
74529;BME280;63009;52.584;5.932;2023-11-21T04:52:07;100946.97;;;10.09;100.00
74529;BME280;63009;52.584;5.932;2023-11-21T04:54:34;100940.16;;;10.05;100.00
74529;BME280;63009;52.584;5.932;2023-11-21T04:56:59;100940.94;;;10.07;100.00
74529;BME280;63009;52.584;5.932;2023-11-21T04:59:25;100946.03;;;10.10;100.00
74529;BME280;63009;52.584;5.932;2023-11-21T05:01:56;100952.50;;;10.04;100.00
74529;BME280;63009;52.584;5.932;2023-11-21T05:04:21;100958.66;;;10.05;100.00
74529;BME280;63009;52.584;5.932;2023-11-21T05:06:47;100959.75;;;10.01;100.00
74529;BME280;63009;52.584;5.932;2023-11-21T05:09:13;100966.31;;;10.09;100.00
74529;BME280;63009;52.584;5.932;2023-11-21T05:11:38;100963.75;;;10.08;100.00
74529;BME280;63009;52.584;5.932;2023-11-21T05:14:04;100965.91;;;10.17;100.00
74529;BME280;63009;52.584;5.932;2023-11-21T05:16:30;100981.56;;;10.20;100.00
74529;BME280;63009;52.584;5.932;2023-11-21T05:18:56;100973.66;;;10.20;100.00
74529;BME280;63009;52.584;5.932;2023-11-21T05:21:26;100973.06;;;10.15;100.00
74529;BME280;63009;52.584;5.932;2023-11-21T05:23:51;100973.56;;;10.06;100.00
74529;BME280;63009;52.584;5.932;2023-11-21T05:26:17;100983.44;;;10.18;100.00
74529;BME280;63009;52.584;5.932;2023-11-21T05:28:42;100980.50;;;10.24;100.00
74529;BME280;63009;52.584;5.932;2023-11-21T05:31:08;100986.63;;;10.25;100.00
74529;BME280;63009;52.584;5.932;2023-11-21T05:33:33;100988.25;;;10.27;100.00
74529;BME280;63009;52.584;5.932;2023-11-21T05:35:58;100979.28;;;10.14;100.00
74529;BME280;63009;52.584;5.932;2023-11-21T05:38:24;100985.78;;;10.24;100.00
74529;BME280;63009;52.584;5.932;2023-11-21T05:40:49;100987.41;;;10.27;100.00
74529;BME280;63009;52.584;5.932;2023-11-21T05:43:15;100995.81;;;10.18;100.00
74529;BME280;63009;52.584;5.932;2023-11-21T05:45:40;101002.97;;;10.16;100.00
74529;BME280;63009;52.584;5.932;2023-11-21T05:48:06;101013.28;;;10.20;100.00
74529;BME280;63009;52.584;5.932;2023-11-21T05:50:31;101009.88;;;10.18;100.00
74529;BME280;63009;52.584;5.932;2023-11-21T05:52:57;101015.31;;;10.15;100.00
74529;BME280;63009;52.584;5.932;2023-11-21T05:55:25;101017.69;;;10.20;100.00
74529;BME280;63009;52.584;5.932;2023-11-21T05:57:51;101023.84;;;10.20;100.00
74529;BME280;63009;52.584;5.932;2023-11-21T06:00:16;101025.63;;;10.20;100.00
74529;BME280;63009;52.584;5.932;2023-11-21T06:02:56;101027.19;;;10.24;100.00
74529;BME280;63009;52.584;5.932;2023-11-21T06:05:23;101036.44;;;10.15;100.00
74529;BME280;63009;52.584;5.932;2023-11-21T06:07:50;101033.00;;;10.13;100.00
74529;BME280;63009;52.584;5.932;2023-11-21T06:10:16;101051.09;;;10.21;100.00
74529;BME280;63009;52.584;5.932;2023-11-21T06:12:43;101055.41;;;10.23;100.00
74529;BME280;63009;52.584;5.932;2023-11-21T06:15:09;101065.66;;;10.29;100.00
74529;BME280;63009;52.584;5.932;2023-11-21T06:17:35;101071.06;;;10.26;100.00
74529;BME280;63009;52.584;5.932;2023-11-21T06:20:05;101068.69;;;10.22;100.00
74529;BME280;63009;52.584;5.932;2023-11-21T06:22:42;101079.16;;;10.23;100.00
74529;BME280;63009;52.584;5.932;2023-11-21T06:25:08;101083.34;;;10.27;100.00
74529;BME280;63009;52.584;5.932;2023-11-21T06:27:36;101087.41;;;10.17;100.00
74529;BME280;63009;52.584;5.932;2023-11-21T06:30:02;101078.72;;;10.15;100.00
74529;BME280;63009;52.584;5.932;2023-11-21T06:32:28;101092.59;;;10.19;100.00
74529;BME280;63009;52.584;5.932;2023-11-21T06:34:57;101084.66;;;10.19;100.00
74529;BME280;63009;52.584;5.932;2023-11-21T06:37:28;101098.66;;;10.21;100.00
74529;BME280;63009;52.584;5.932;2023-11-21T06:39:54;101100.53;;;10.19;100.00
74529;BME280;63009;52.584;5.932;2023-11-21T06:42:21;101100.81;;;10.12;100.00
74529;BME280;63009;52.584;5.932;2023-11-21T06:44:47;101111.47;;;10.11;100.00
74529;BME280;63009;52.584;5.932;2023-11-21T06:47:13;101114.81;;;10.15;100.00
74529;BME280;63009;52.584;5.932;2023-11-21T06:49:38;101115.22;;;10.07;100.00
74529;BME280;63009;52.584;5.932;2023-11-21T06:52:04;101120.09;;;10.15;100.00
74529;BME280;63009;52.584;5.932;2023-11-21T06:54:31;101124.22;;;10.20;100.00
74529;BME280;63009;52.584;5.932;2023-11-21T06:56:56;101132.75;;;10.25;100.00
74529;BME280;63009;52.584;5.932;2023-11-21T06:59:22;101135.63;;;10.21;100.00
74529;BME280;63009;52.584;5.932;2023-11-21T07:01:47;101142.88;;;10.17;100.00
74529;BME280;63009;52.584;5.932;2023-11-21T07:04:12;101153.50;;;10.16;100.00
74529;BME280;63009;52.584;5.932;2023-11-21T07:06:38;101160.19;;;10.23;100.00
74529;BME280;63009;52.584;5.932;2023-11-21T07:09:03;101164.38;;;10.27;100.00
74529;BME280;63009;52.584;5.932;2023-11-21T07:11:28;101170.13;;;10.18;100.00
74529;BME280;63009;52.584;5.932;2023-11-21T07:13:54;101166.72;;;10.16;100.00
74529;BME280;63009;52.584;5.932;2023-11-21T07:16:19;101183.44;;;10.33;100.00
74529;BME280;63009;52.584;5.932;2023-11-21T07:18:44;101189.56;;;10.34;100.00
74529;BME280;63009;52.584;5.932;2023-11-21T07:21:10;101186.91;;;10.34;100.00
74529;BME280;63009;52.584;5.932;2023-11-21T07:23:37;101190.09;;;10.23;100.00
74529;BME280;63009;52.584;5.932;2023-11-21T07:26:02;101199.13;;;10.36;100.00
74529;BME280;63009;52.584;5.932;2023-11-21T07:28:29;101199.75;;;10.24;100.00
74529;BME280;63009;52.584;5.932;2023-11-21T07:30:55;101196.25;;;10.24;100.00
74529;BME280;63009;52.584;5.932;2023-11-21T07:33:20;101205.97;;;10.23;100.00
74529;BME280;63009;52.584;5.932;2023-11-21T07:35:46;101196.75;;;9.96;100.00
74529;BME280;63009;52.584;5.932;2023-11-21T07:38:11;101215.56;;;10.07;100.00
74529;BME280;63009;52.584;5.932;2023-11-21T07:40:37;101225.78;;;10.32;100.00
74529;BME280;63009;52.584;5.932;2023-11-21T07:43:02;101225.75;;;10.15;100.00
74529;BME280;63009;52.584;5.932;2023-11-21T07:45:28;101229.94;;;10.19;100.00
74529;BME280;63009;52.584;5.932;2023-11-21T07:47:54;101243.22;;;10.17;100.00
74529;BME280;63009;52.584;5.932;2023-11-21T07:50:20;101238.81;;;10.18;100.00
74529;BME280;63009;52.584;5.932;2023-11-21T07:52:46;101239.94;;;10.12;100.00
74529;BME280;63009;52.584;5.932;2023-11-21T07:55:11;101245.41;;;10.26;100.00
74529;BME280;63009;52.584;5.932;2023-11-21T07:57:37;101249.44;;;10.16;100.00
74529;BME280;63009;52.584;5.932;2023-11-21T08:00:04;101258.56;;;10.28;100.00
74529;BME280;63009;52.584;5.932;2023-11-21T08:02:34;101268.59;;;10.21;100.00
74529;BME280;63009;52.584;5.932;2023-11-21T08:04:59;101279.34;;;10.17;100.00
74529;BME280;63009;52.584;5.932;2023-11-21T08:07:25;101266.06;;;10.18;100.00
74529;BME280;63009;52.584;5.932;2023-11-21T08:09:51;101283.63;;;10.19;100.00
74529;BME280;63009;52.584;5.932;2023-11-21T08:12:17;101275.13;;;10.31;100.00
74529;BME280;63009;52.584;5.932;2023-11-21T08:14:43;101279.22;;;10.37;100.00
74529;BME280;63009;52.584;5.932;2023-11-21T08:17:09;101281.25;;;10.32;100.00
74529;BME280;63009;52.584;5.932;2023-11-21T08:19:35;101288.34;;;10.31;100.00
74529;BME280;63009;52.584;5.932;2023-11-21T08:22:02;101301.53;;;10.31;100.00
74529;BME280;63009;52.584;5.932;2023-11-21T08:24:27;101306.81;;;10.49;100.00
74529;BME280;63009;52.584;5.932;2023-11-21T08:26:53;101305.13;;;10.30;100.00
74529;BME280;63009;52.584;5.932;2023-11-21T08:29:19;101302.06;;;10.38;100.00
74529;BME280;63009;52.584;5.932;2023-11-21T08:31:44;101321.13;;;10.45;100.00
74529;BME280;63009;52.584;5.932;2023-11-21T08:34:12;101303.09;;;10.53;100.00
74529;BME280;63009;52.584;5.932;2023-11-21T08:36:41;101326.38;;;10.27;100.00
74529;BME280;63009;52.584;5.932;2023-11-21T08:39:07;101336.66;;;10.33;100.00
74529;BME280;63009;52.584;5.932;2023-11-21T08:41:35;101338.91;;;10.93;100.00
74529;BME280;63009;52.584;5.932;2023-11-21T08:44:02;101342.66;;;10.89;100.00
74529;BME280;63009;52.584;5.932;2023-11-21T08:46:32;101349.06;;;10.85;100.00
74529;BME280;63009;52.584;5.932;2023-11-21T08:49:00;101352.69;;;10.99;100.00
74529;BME280;63009;52.584;5.932;2023-11-21T08:51:25;101363.84;;;10.72;100.00
74529;BME280;63009;52.584;5.932;2023-11-21T08:53:50;101368.31;;;10.69;100.00
74529;BME280;63009;52.584;5.932;2023-11-21T08:56:16;101366.56;;;10.34;100.00
74529;BME280;63009;52.584;5.932;2023-11-21T08:58:43;101363.25;;;10.48;100.00
74529;BME280;63009;52.584;5.932;2023-11-21T09:01:08;101377.47;;;10.45;100.00
74529;BME280;63009;52.584;5.932;2023-11-21T09:03:34;101381.81;;;10.29;100.00
74529;BME280;63009;52.584;5.932;2023-11-21T09:06:00;101379.72;;;10.35;100.00
74529;BME280;63009;52.584;5.932;2023-11-21T09:08:25;101383.28;;;10.34;100.00
74529;BME280;63009;52.584;5.932;2023-11-21T09:10:51;101395.66;;;10.34;100.00
74529;BME280;63009;52.584;5.932;2023-11-21T09:13:17;101389.44;;;10.35;100.00
74529;BME280;63009;52.584;5.932;2023-11-21T09:15:43;101407.75;;;10.38;100.00
74529;BME280;63009;52.584;5.932;2023-11-21T09:18:14;101399.75;;;10.39;100.00
74529;BME280;63009;52.584;5.932;2023-11-21T09:20:40;101406.22;;;10.34;100.00
74529;BME280;63009;52.584;5.932;2023-11-21T09:23:05;101408.06;;;10.32;100.00
74529;BME280;63009;52.584;5.932;2023-11-21T09:25:32;101414.00;;;10.54;100.00
74529;BME280;63009;52.584;5.932;2023-11-21T09:27:57;101420.72;;;10.25;100.00
74529;BME280;63009;52.584;5.932;2023-11-21T09:30:23;101426.50;;;10.33;100.00
74529;BME280;63009;52.584;5.932;2023-11-21T09:32:50;101417.91;;;10.47;100.00
74529;BME280;63009;52.584;5.932;2023-11-21T09:35:15;101426.19;;;10.39;100.00
74529;BME280;63009;52.584;5.932;2023-11-21T09:37:43;101425.91;;;10.46;100.00
74529;BME280;63009;52.584;5.932;2023-11-21T09:40:10;101436.41;;;10.47;100.00
74529;BME280;63009;52.584;5.932;2023-11-21T09:42:40;101443.19;;;10.34;100.00
74529;BME280;63009;52.584;5.932;2023-11-21T09:45:18;101432.78;;;10.31;100.00
74529;BME280;63009;52.584;5.932;2023-11-21T09:47:46;101450.25;;;10.15;100.00
74529;BME280;63009;52.584;5.932;2023-11-21T09:50:16;101464.19;;;10.18;100.00
74529;BME280;63009;52.584;5.932;2023-11-21T09:55:34;101463.91;;;10.24;100.00
74529;BME280;63009;52.584;5.932;2023-11-21T09:58:04;101468.53;;;10.19;100.00
74529;BME280;63009;52.584;5.932;2023-11-21T10:00:33;101476.63;;;10.35;100.00
74529;BME280;63009;52.584;5.932;2023-11-21T10:02:58;101495.19;;;10.33;100.00
74529;BME280;63009;52.584;5.932;2023-11-21T10:05:24;101487.50;;;10.29;100.00
74529;BME280;63009;52.584;5.932;2023-11-21T10:07:50;101495.53;;;10.45;100.00
74529;BME280;63009;52.584;5.932;2023-11-21T10:10:18;101494.97;;;10.38;100.00
74529;BME280;63009;52.584;5.932;2023-11-21T10:12:47;101504.34;;;10.45;100.00
74529;BME280;63009;52.584;5.932;2023-11-21T10:15:14;101506.84;;;10.29;100.00
74529;BME280;63009;52.584;5.932;2023-11-21T10:17:42;101511.31;;;10.27;100.00
74529;BME280;63009;52.584;5.932;2023-11-21T10:20:13;101513.50;;;10.18;100.00
74529;BME280;63009;52.584;5.932;2023-11-21T10:22:42;101518.97;;;10.33;100.00
74529;BME280;63009;52.584;5.932;2023-11-21T10:25:09;101524.09;;;10.36;100.00
74529;BME280;63009;52.584;5.932;2023-11-21T10:27:36;101515.91;;;10.43;100.00
74529;BME280;63009;52.584;5.932;2023-11-21T10:30:02;101518.34;;;10.28;100.00
74529;BME280;63009;52.584;5.932;2023-11-21T10:32:29;101521.25;;;10.41;100.00
74529;BME280;63009;52.584;5.932;2023-11-21T10:34:58;101524.16;;;10.54;100.00
74529;BME280;63009;52.584;5.932;2023-11-21T10:37:25;101531.25;;;10.34;100.00
74529;BME280;63009;52.584;5.932;2023-11-21T10:39:57;101529.47;;;10.35;100.00
74529;BME280;63009;52.584;5.932;2023-11-21T10:42:26;101536.38;;;10.37;100.00
74529;BME280;63009;52.584;5.932;2023-11-21T10:44:53;101547.03;;;10.36;100.00
74529;BME280;63009;52.584;5.932;2023-11-21T10:47:19;101530.06;;;10.42;100.00
74529;BME280;63009;52.584;5.932;2023-11-21T10:49:45;101539.69;;;10.43;100.00
74529;BME280;63009;52.584;5.932;2023-11-21T10:52:13;101551.97;;;10.44;100.00
74529;BME280;63009;52.584;5.932;2023-11-21T10:54:45;101555.81;;;10.55;100.00
74529;BME280;63009;52.584;5.932;2023-11-21T10:57:13;101548.31;;;10.46;100.00
74529;BME280;63009;52.584;5.932;2023-11-21T10:59:45;101550.91;;;10.48;100.00
74529;BME280;63009;52.584;5.932;2023-11-21T11:02:31;101550.41;;;10.19;100.00
74529;BME280;63009;52.584;5.932;2023-11-21T11:04:59;101556.56;;;10.20;100.00
74529;BME280;63009;52.584;5.932;2023-11-21T11:07:27;101564.16;;;10.27;100.00
74529;BME280;63009;52.584;5.932;2023-11-21T11:09:55;101555.50;;;10.24;100.00
74529;BME280;63009;52.584;5.932;2023-11-21T11:12:21;101556.97;;;10.31;100.00
74529;BME280;63009;52.584;5.932;2023-11-21T11:14:48;101570.44;;;10.25;100.00
74529;BME280;63009;52.584;5.932;2023-11-21T11:17:13;101569.63;;;10.43;100.00
74529;BME280;63009;52.584;5.932;2023-11-21T11:19:38;101578.03;;;10.32;100.00
74529;BME280;63009;52.584;5.932;2023-11-21T11:25:06;101581.31;;;10.17;100.00
74529;BME280;63009;52.584;5.932;2023-11-21T11:30:32;101581.25;;;10.19;100.00
74529;BME280;63009;52.584;5.932;2023-11-21T11:36:13;101589.50;;;10.11;100.00
74529;BME280;63009;52.584;5.932;2023-11-21T11:38:45;101593.81;;;10.14;100.00
74529;BME280;63009;52.584;5.932;2023-11-21T11:41:11;101587.41;;;9.99;100.00
74529;BME280;63009;52.584;5.932;2023-11-21T11:43:37;101608.88;;;9.91;100.00
74529;BME280;63009;52.584;5.932;2023-11-21T11:46:12;101611.25;;;10.18;100.00
74529;BME280;63009;52.584;5.932;2023-11-21T11:48:38;101616.38;;;10.21;100.00
74529;BME280;63009;52.584;5.932;2023-11-21T11:51:12;101616.03;;;10.30;100.00
74529;BME280;63009;52.584;5.932;2023-11-21T11:53:41;101614.03;;;10.15;100.00
74529;BME280;63009;52.584;5.932;2023-11-21T11:56:22;101624.69;;;10.11;100.00
74529;BME280;63009;52.584;5.932;2023-11-21T11:58:48;101636.47;;;10.25;100.00
74529;BME280;63009;52.584;5.932;2023-11-21T12:01:17;101617.72;;;10.10;100.00
74529;BME280;63009;52.584;5.932;2023-11-21T12:03:44;101631.13;;;10.06;100.00
74529;BME280;63009;52.584;5.932;2023-11-21T12:06:09;101630.66;;;9.96;100.00
74529;BME280;63009;52.584;5.932;2023-11-21T12:08:37;101643.13;;;9.93;100.00
74529;BME280;63009;52.584;5.932;2023-11-21T12:11:03;101644.00;;;9.93;100.00
74529;BME280;63009;52.584;5.932;2023-11-21T12:13:29;101646.28;;;9.80;100.00
74529;BME280;63009;52.584;5.932;2023-11-21T12:15:55;101637.78;;;9.94;100.00
74529;BME280;63009;52.584;5.932;2023-11-21T12:18:21;101641.44;;;9.92;100.00
74529;BME280;63009;52.584;5.932;2023-11-21T12:20:46;101647.94;;;9.83;100.00
74529;BME280;63009;52.584;5.932;2023-11-21T12:23:14;101634.00;;;9.59;100.00
74529;BME280;63009;52.584;5.932;2023-11-21T12:25:40;101646.69;;;9.71;100.00
74529;BME280;63009;52.584;5.932;2023-11-21T12:28:06;101654.84;;;9.65;100.00
74529;BME280;63009;52.584;5.932;2023-11-21T12:30:33;101662.22;;;9.79;100.00
74529;BME280;63009;52.584;5.932;2023-11-21T12:33:03;101663.25;;;9.75;100.00
74529;BME280;63009;52.584;5.932;2023-11-21T12:35:31;101657.56;;;9.84;100.00
74529;BME280;63009;52.584;5.932;2023-11-21T12:37:59;101659.09;;;9.69;100.00
74529;BME280;63009;52.584;5.932;2023-11-21T12:40:25;101661.56;;;9.52;100.00
74529;BME280;63009;52.584;5.932;2023-11-21T12:42:52;101651.97;;;9.71;100.00
74529;BME280;63009;52.584;5.932;2023-11-21T12:45:26;101658.22;;;9.69;100.00
74529;BME280;63009;52.584;5.932;2023-11-21T12:47:55;101656.97;;;9.57;100.00
74529;BME280;63009;52.584;5.932;2023-11-21T12:50:28;101666.28;;;9.22;100.00